チタ の空港の天気 - METARとTAF

チタ・カダラ空港 ( UIAA / HTA ) - ロシア チタ
飛行場実況気象(Metar)
観測時間08/11 15:30 YAKT (08/11 06:30 UTC)
風向・風速東南東 4m/s
視程10km以上
天気現象
全天の4割程度の雲 雲底高度 1220m
気温22℃
湿度65%
気圧1008hPa
METARUIAA 110630Z 11004MPS 9999 SCT040CB 22/15 Q1008 R29/70D NOSIG RMK QFE697/0930
過去の天気等 Google飛行場航空写真 Wunderground天気予報

過去48時間のMETAR

飛行場予報(TAF)
発表時間: 8/11 14:00 YAKT (8/11 05:00 UTC)
予報対象時間: 11日15時 YAKT ~ 12日15時 YAKT
風向・風速北北東 3m/s 瞬間風速 8m/s
視程10km以上
全天の8割程度の積乱雲 雲底高度 1010m
11日15時 YAKT ~ 11日21時 YAKT に一時的に
風向・風速不定 8m/s
天気現象弱い雷雨
TAF UIAA 110500Z 1106/1206 02003G08MPS 9999 BKN033CB
TEMPO 1106/1112 VRB08MPS -TSRA